Time;durP1;ratioP1;P1;durP2;ratioP2;P2;SDS_P1;SDS_P2;PMS_P1;PMS_P2;Temp;Humidity;BMP_temperature;BMP_pressure;BME280_temperature;BME280_humidity;BME280_pressure;Samples;Min_cycle;Max_cycle;Signal;HPM_P1;HPM_P2
2023/07/25 00:01:12;;;;;;;;;;;;;;;25.41;62.67;96608.23;624735;227;64816;-61
2023/07/25 00:03:39;;;;;;;;;;;;;;;25.42;64.60;96615.97;624742;227;62704;-61
2023/07/25 00:06:07;;;;;;;;;;;;;;;25.42;63.95;96613.28;624747;227;67150;-61
2023/07/25 00:08:34;;;;;;;;;;;;;;;25.40;63.82;96604.75;624789;227;66735;-61
2023/07/25 00:11:01;;;;;;;;;;;;;;;25.40;63.97;96595.86;624731;227;64721;-61
2023/07/25 00:13:29;;;;;;;;;;;;;;;25.40;64.25;96591.30;624697;227;71657;-61
2023/07/25 00:15:57;;;;;;;;;;;;;;;25.39;63.29;96588.91;624726;227;67425;-61
2023/07/25 00:18:24;;;;;;;;;;;;;;;25.39;64.01;96576.24;624753;227;64768;-61
2023/07/25 00:20:51;;;;;;;;;;;;;;;25.39;63.92;96570.86;624777;227;64814;-61
2023/07/25 00:23:19;;;;;;;;;;;;;;;25.38;63.91;96580.05;624816;227;64914;-61
2023/07/25 00:25:46;;;;;;;;;;;;;;;25.38;63.59;96571.19;624708;227;64666;-61
2023/07/25 00:28:14;;;;;;;;;;;;;;;25.37;62.99;96575.78;624752;227;67172;-61
2023/07/25 00:30:41;;;;;;;;;;;;;;;25.37;64.11;96575.78;624755;227;66950;-61
2023/07/25 00:33:09;;;;;;;;;;;;;;;25.37;62.67;96575.78;624770;227;64723;-61
2023/07/25 00:35:36;;;;;;;;;;;;;;;25.37;63.00;96574.97;624800;227;66981;-61
2023/07/25 00:38:07;;;;;;;;;;;;;;;25.38;63.82;96577.36;624732;227;65020;-61
2023/07/25 00:40:36;;;;;;;;;;;;;;;25.38;63.72;96584.64;624737;227;64774;-62
2023/07/25 00:43:03;;;;;;;;;;;;;;;25.37;63.44;96581.16;624673;227;65210;-61
2023/07/25 00:45:31;;;;;;;;;;;;;;;25.36;62.96;96574.17;624758;227;64922;-62
2023/07/25 00:47:58;;;;;;;;;;;;;;;25.38;64.11;96576.57;624794;227;62540;-61
2023/07/25 00:50:26;;;;;;;;;;;;;;;25.36;63.24;96562.63;624762;227;65834;-62
2023/07/25 00:52:57;;;;;;;;;;;;;;;25.35;62.72;96564.53;624701;227;65874;-62
2023/07/25 00:55:22;;;;;;;;;;;;;;;25.35;63.85;96564.53;624565;227;62397;-62
2023/07/25 00:57:51;;;;;;;;;;;;;;;25.36;63.41;96562.63;624764;227;65145;-62
2023/07/25 01:00:18;;;;;;;;;;;;;;;25.35;62.82;96563.74;624796;227;67114;-62
2023/07/25 01:02:46;;;;;;;;;;;;;;;25.35;63.46;96561.05;624791;227;62581;-62
2023/07/25 01:05:13;;;;;;;;;;;;;;;25.35;63.56;96548.39;624700;227;67221;-61
2023/07/25 01:07:41;;;;;;;;;;;;;;;25.33;63.09;96542.52;624740;227;67029;-62
2023/07/25 01:10:08;;;;;;;;;;;;;;;25.34;63.56;96551.38;624742;227;64548;-61
2023/07/25 01:12:36;;;;;;;;;;;;;;;25.34;63.88;96552.17;624682;226;67149;-62
2023/07/25 01:15:03;;;;;;;;;;;;;;;25.35;63.46;96547.61;624807;227;67034;-62
2023/07/25 01:17:31;;;;;;;;;;;;;;;25.34;63.35;96546.79;624755;227;64803;-62
2023/07/25 01:20:00;;;;;;;;;;;;;;;25.35;63.41;96543.02;624695;227;67154;-62
2023/07/25 01:22:29;;;;;;;;;;;;;;;25.32;62.36;96543.64;624767;227;66602;-62
2023/07/25 01:24:56;;;;;;;;;;;;;;;25.33;62.30;96547.12;624618;227;62695;-62
2023/07/25 01:27:24;;;;;;;;;;;;;;;25.33;63.07;96555.19;624807;227;67151;-62
2023/07/25 01:29:51;;;;;;;;;;;;;;;25.32;63.46;96551.70;624684;227;67309;-61
2023/07/25 01:32:19;;;;;;;;;;;;;;;25.32;62.87;96562.47;624710;227;64645;-62
2023/07/25 01:34:46;;;;;;;;;;;;;;;25.32;63.73;96557.09;624668;227;65958;-62
2023/07/25 01:37:14;;;;;;;;;;;;;;;25.31;63.21;96558.17;624754;227;67109;-67
2023/07/25 01:39:43;;;;;;;;;;;;;;;25.32;63.16;96561.64;624804;227;64553;-67
2023/07/25 01:42:10;;;;;;;;;;;;;;;25.32;62.45;96559.78;624714;227;67331;-67
2023/07/25 01:44:38;;;;;;;;;;;;;;;25.32;63.12;96565.16;624757;227;64835;-67
2023/07/25 01:47:05;;;;;;;;;;;;;;;25.31;63.47;96555.48;624703;227;63481;-67
2023/07/25 01:49:33;;;;;;;;;;;;;;;25.31;63.19;96554.69;624759;227;66909;-67
2023/07/25 01:52:00;;;;;;;;;;;;;;;25.30;63.50;96555.81;624772;227;67150;-67
2023/07/25 01:54:28;;;;;;;;;;;;;;;25.29;63.06;96546.95;624708;227;64995;-67
2023/07/25 01:56:55;;;;;;;;;;;;;;;25.30;62.46;96542.36;624725;227;68052;-67
2023/07/25 01:59:23;;;;;;;;;;;;;;;25.29;62.80;96536.20;624709;227;67624;-61
2023/07/25 02:01:51;;;;;;;;;;;;;;;25.30;62.45;96543.15;624754;227;64666;-62
2023/07/25 02:04:18;;;;;;;;;;;;;;;25.31;62.81;96543.94;624797;227;67194;-61
2023/07/25 02:06:46;;;;;;;;;;;;;;;25.30;62.94;96537.77;624728;227;67735;-62
2023/07/25 02:09:13;;;;;;;;;;;;;;;25.30;62.50;96545.05;624747;227;64827;-61
2023/07/25 02:11:41;;;;;;;;;;;;;;;25.29;62.53;96549.64;624649;226;65592;-62
2023/07/25 02:14:08;;;;;;;;;;;;;;;25.29;63.54;96538.06;624507;227;65143;-62
2023/07/25 02:16:37;;;;;;;;;;;;;;;25.27;62.67;96543.77;624535;227;62429;-62
2023/07/25 02:19:05;;;;;;;;;;;;;;;25.27;63.80;96543.77;624573;227;67168;-62
2023/07/25 02:21:32;;;;;;;;;;;;;;;25.28;64.42;96542.66;624523;227;66973;-62
2023/07/25 02:24:00;;;;;;;;;;;;;;;25.29;63.52;96540.75;624550;227;64556;-62
2023/07/25 02:26:29;;;;;;;;;;;;;;;25.27;62.38;96543.77;624511;227;67197;-61
2023/07/25 02:28:57;;;;;;;;;;;;;;;25.28;62.52;96545.34;624514;227;67173;-62
2023/07/25 02:31:24;;;;;;;;;;;;;;;25.30;63.34;96547.73;624594;227;62486;-66
2023/07/25 02:33:52;;;;;;;;;;;;;;;25.28;62.40;96550.72;624550;227;67314;-67
2023/07/25 02:36:19;;;;;;;;;;;;;;;25.28;63.01;96547.25;624570;227;66517;-67
2023/07/25 02:38:47;;;;;;;;;;;;;;;25.29;63.42;96557.71;624548;227;62690;-67
2023/07/25 02:41:16;;;;;;;;;;;;;;;25.28;62.62;96555.31;624513;227;65641;-67
2023/07/25 02:43:44;;;;;;;;;;;;;;;25.25;62.81;96562.89;624583;227;66890;-67
2023/07/25 02:46:11;;;;;;;;;;;;;;;25.25;63.30;96564.80;624547;227;64752;-67
2023/07/25 02:48:38;;;;;;;;;;;;;;;25.26;63.29;96560.99;624542;227;66831;-67
2023/07/25 02:51:06;;;;;;;;;;;;;;;25.25;62.73;96560.20;624565;227;66900;-67
2023/07/25 02:53:33;;;;;;;;;;;;;;;25.25;62.75;96554.04;624518;227;62330;-67
2023/07/25 02:56:01;;;;;;;;;;;;;;;25.25;62.90;96559.42;624565;227;66945;-67
2023/07/25 02:58:28;;;;;;;;;;;;;;;25.26;62.85;96558.30;624527;227;64449;-67
2023/07/25 03:00:56;;;;;;;;;;;;;;;25.25;63.26;96562.89;624554;227;63588;-67
2023/07/25 03:03:23;;;;;;;;;;;;;;;25.25;62.82;96562.11;624524;227;64586;-67
2023/07/25 03:05:51;;;;;;;;;;;;;;;25.24;63.24;96545.18;624534;227;67175;-67
2023/07/25 03:08:18;;;;;;;;;;;;;;;25.25;63.40;96543.28;624526;227;64283;-67
2023/07/25 03:10:46;;;;;;;;;;;;;;;25.23;61.76;96551.64;624478;227;67307;-67
2023/07/25 03:13:13;;;;;;;;;;;;;;;25.24;62.83;96555.16;624693;226;66857;-67
2023/07/25 03:15:41;;;;;;;;;;;;;;;25.22;60.59;96547.38;624706;227;65510;-67
2023/07/25 03:18:08;;;;;;;;;;;;;;;25.22;62.96;96531.25;624724;227;67150;-67
2023/07/25 03:20:36;;;;;;;;;;;;;;;25.23;61.35;96537.41;624788;227;67113;-67
2023/07/25 03:23:03;;;;;;;;;;;;;;;25.22;61.72;96531.25;624751;227;64684;-67
2023/07/25 03:25:31;;;;;;;;;;;;;;;25.22;62.80;96525.87;624764;227;64775;-67
2023/07/25 03:27:58;;;;;;;;;;;;;;;25.21;60.84;96524.30;624763;227;64753;-61
2023/07/25 03:30:26;;;;;;;;;;;;;;;25.22;62.57;96527.77;624735;227;62543;-61
2023/07/25 03:32:54;;;;;;;;;;;;;;;25.22;61.36;96530.45;624683;227;67272;-61
2023/07/25 03:35:21;;;;;;;;;;;;;;;25.22;62.75;96531.25;624775;227;66974;-61
2023/07/25 03:37:49;;;;;;;;;;;;;;;25.22;62.37;96523.17;624752;227;64597;-61
2023/07/25 03:40:16;;;;;;;;;;;;;;;25.22;62.96;96520.48;624741;227;64610;-61
2023/07/25 03:42:44;;;;;;;;;;;;;;;25.22;62.69;96517.02;624769;227;67010;-61
2023/07/25 03:45:11;;;;;;;;;;;;;;;25.23;63.62;96523.97;624761;227;62563;-61
2023/07/25 03:47:38;;;;;;;;;;;;;;;25.21;61.62;96526.20;624783;227;67082;-61
2023/07/25 03:50:06;;;;;;;;;;;;;;;25.23;62.54;96523.97;624773;227;66821;-61
2023/07/25 03:52:34;;;;;;;;;;;;;;;25.22;63.31;96517.02;624766;227;64737;-61
2023/07/25 03:55:02;;;;;;;;;;;;;;;25.21;62.54;96518.13;624729;227;65072;-62
2023/07/25 03:57:29;;;;;;;;;;;;;;;25.22;63.43;96520.48;624740;227;67563;-61
2023/07/25 03:59:57;;;;;;;;;;;;;;;25.21;62.49;96512.75;624806;227;65792;-61
2023/07/25 04:02:24;;;;;;;;;;;;;;;25.20;62.22;96508.45;624709;227;65689;-61
2023/07/25 04:04:53;;;;;;;;;;;;;;;25.19;61.18;96509.57;624742;227;65715;-61
2023/07/25 04:07:20;;;;;;;;;;;;;;;25.19;62.34;96506.88;624775;227;63385;-62
2023/07/25 04:09:48;;;;;;;;;;;;;;;25.19;61.10;96499.59;624734;227;67987;-61
2023/07/25 04:12:15;;;;;;;;;;;;;;;25.20;62.34;96495.02;624773;226;66899;-61
2023/07/25 04:14:42;;;;;;;;;;;;;;;25.19;62.67;96502.29;624739;227;64595;-61
2023/07/25 04:17:10;;;;;;;;;;;;;;;25.19;61.71;96504.19;624731;227;64435;-62
2023/07/25 04:19:38;;;;;;;;;;;;;;;25.20;61.69;96508.45;624743;227;65684;-61
2023/07/25 04:22:05;;;;;;;;;;;;;;;25.19;62.62;96504.98;624751;227;62507;-61
2023/07/25 04:24:33;;;;;;;;;;;;;;;25.19;63.00;96506.88;624762;227;67399;-61
2023/07/25 04:27:01;;;;;;;;;;;;;;;25.18;63.86;96498.03;624753;227;66982;-61
2023/07/25 04:29:28;;;;;;;;;;;;;;;25.18;62.94;96502.59;624724;227;64557;-62
2023/07/25 04:31:56;;;;;;;;;;;;;;;25.17;62.36;96501.02;624714;227;64832;-61
2023/07/25 04:34:24;;;;;;;;;;;;;;;25.17;61.96;96501.02;624748;227;65507;-61
2023/07/25 04:36:52;;;;;;;;;;;;;;;25.17;62.84;96501.80;624734;227;64705;-62
2023/07/25 04:39:21;;;;;;;;;;;;;;;25.18;63.64;96491.83;624652;227;67239;-61
2023/07/25 04:41:48;;;;;;;;;;;;;;;25.16;63.20;96494.84;624717;227;64528;-61
2023/07/25 04:44:16;;;;;;;;;;;;;;;25.18;64.62;96497.20;624723;227;64606;-62
2023/07/25 04:46:44;;;;;;;;;;;;;;;25.16;63.53;96504.81;624739;227;67269;-61
2023/07/25 04:49:14;;;;;;;;;;;;;;;25.17;63.87;96501.80;624777;227;64530;-61
2023/07/25 04:51:41;;;;;;;;;;;;;;;25.16;64.08;96500.22;624786;227;64020;-60
2023/07/25 04:54:09;;;;;;;;;;;;;;;25.16;64.12;96494.84;624742;227;64859;-60
2023/07/25 04:56:40;;;;;;;;;;;;;;;25.15;63.75;96497.83;624717;227;67028;-60
2023/07/25 04:59:06;;;;;;;;;;;;;;;25.16;64.86;96497.53;624673;227;65477;-60
2023/07/25 05:01:33;;;;;;;;;;;;;;;25.16;64.89;96494.84;624743;227;67125;-60
2023/07/25 05:04:00;;;;;;;;;;;;;;;25.15;64.25;96493.24;624818;227;66814;-60
2023/07/25 05:06:28;;;;;;;;;;;;;;;25.15;64.43;96495.14;624723;227;62477;-60
2023/07/25 05:08:56;;;;;;;;;;;;;;;25.15;64.65;96497.83;624725;227;67014;-60
2023/07/25 05:11:23;;;;;;;;;;;;;;;25.16;64.63;96496.75;624626;226;67340;-60
2023/07/25 05:13:51;;;;;;;;;;;;;;;25.14;64.12;96494.33;624534;227;62664;-60
2023/07/25 05:16:19;;;;;;;;;;;;;;;25.16;64.88;96494.06;624569;227;64895;-60
2023/07/25 05:18:47;;;;;;;;;;;;;;;25.16;64.42;96494.06;624527;227;66978;-60
2023/07/25 05:21:15;;;;;;;;;;;;;;;25.15;63.52;96481.70;624544;227;62602;-60
2023/07/25 05:23:42;;;;;;;;;;;;;;;25.16;64.56;96488.68;624495;227;64982;-61
2023/07/25 05:26:10;;;;;;;;;;;;;;;25.15;64.45;96477.11;624540;227;65005;-65
2023/07/25 05:28:37;;;;;;;;;;;;;;;25.15;63.97;96484.39;624566;227;64821;-66
2023/07/25 05:31:05;;;;;;;;;;;;;;;25.15;64.31;96487.08;624562;227;66984;-66
2023/07/25 05:33:32;;;;;;;;;;;;;;;25.15;63.89;96481.70;624503;227;67178;-66
2023/07/25 05:36:01;;;;;;;;;;;;;;;25.14;64.32;96486.26;624473;227;64705;-66
2023/07/25 05:38:29;;;;;;;;;;;;;;;25.16;64.92;96480.61;624499;227;67477;-66
2023/07/25 05:40:56;;;;;;;;;;;;;;;25.16;65.23;96484.09;624523;227;67155;-66
2023/07/25 05:43:24;;;;;;;;;;;;;;;25.16;64.46;96483.30;624601;227;64753;-66
2023/07/25 05:45:51;;;;;;;;;;;;;;;25.15;64.48;96476.32;624530;227;67229;-66
2023/07/25 05:48:19;;;;;;;;;;;;;;;25.14;64.26;96459.38;624536;227;66976;-65
2023/07/25 05:50:52;;;;;;;;;;;;;;;25.15;65.08;96466.36;624506;227;62675;-65
2023/07/25 05:53:21;;;;;;;;;;;;;;;25.14;64.43;96464.75;624527;227;67227;-66
2023/07/25 05:55:48;;;;;;;;;;;;;;;25.16;64.99;96461.80;624556;227;66926;-66
2023/07/25 05:58:16;;;;;;;;;;;;;;;25.16;65.42;96464.48;624436;227;62768;-65
2023/07/25 06:00:45;;;;;;;;;;;;;;;25.15;66.01;96458.28;624492;227;64871;-64
2023/07/25 06:03:13;;;;;;;;;;;;;;;25.16;66.54;96456.41;623766;227;67073;-66
2023/07/25 06:05:41;;;;;;;;;;;;;;;25.15;60.11;96460.19;619462;227;64556;-66
2023/07/25 06:08:09;;;;;;;;;;;;;;;25.15;59.78;96455.59;617331;230;64861;-66
2023/07/25 06:10:36;;;;;;;;;;;;;;;25.17;60.25;96457.98;617154;230;64507;-68
2023/07/25 06:13:04;;;;;;;;;;;;;;;25.17;59.12;96453.40;617924;229;62696;-65
2023/07/25 06:15:34;;;;;;;;;;;;;;;25.20;59.17;96451.98;618195;229;67284;-64
2023/07/25 06:18:02;;;;;;;;;;;;;;;25.22;59.01;96452.47;618244;229;64756;-64
2023/07/25 06:20:30;;;;;;;;;;;;;;;25.22;59.65;96449.78;618226;229;62569;-65
2023/07/25 06:22:57;;;;;;;;;;;;;;;25.23;59.31;96456.73;618232;229;65026;-65
2023/07/25 06:25:25;;;;;;;;;;;;;;;25.24;59.32;96455.65;618217;229;64762;-65
2023/07/25 06:27:53;;;;;;;;;;;;;;;25.26;60.08;96453.42;618251;229;64621;-64
2023/07/25 06:30:21;;;;;;;;;;;;;;;25.28;60.25;96447.74;618197;229;67277;-65
2023/07/25 06:32:48;;;;;;;;;;;;;;;25.29;60.49;96444.75;618235;229;67041;-67
2023/07/25 06:35:16;;;;;;;;;;;;;;;25.30;61.17;96451.70;618295;229;64716;-66
2023/07/25 06:37:43;;;;;;;;;;;;;;;25.30;59.95;96445.54;618222;229;64887;-65
2023/07/25 06:40:11;;;;;;;;;;;;;;;25.31;60.49;96450.59;618285;229;66743;-65
2023/07/25 06:42:38;;;;;;;;;;;;;;;25.32;61.58;96444.13;618249;229;62884;-65
2023/07/25 06:45:07;;;;;;;;;;;;;;;25.35;61.34;96437.33;618227;229;66617;-65
2023/07/25 06:47:35;;;;;;;;;;;;;;;25.37;61.78;96440.48;621733;226;64624;-65
2023/07/25 06:50:02;;;;;;;;;;;;;;;25.39;61.88;96433.68;621522;228;64730;-60
2023/07/25 06:52:30;;;;;;;;;;;;;;;25.40;61.17;96421.02;621476;228;67221;-62
2023/07/25 06:54:58;;;;;;;;;;;;;;;25.41;61.02;96411.86;621610;228;66687;-60
2023/07/25 06:57:28;;;;;;;;;;;;;;;25.42;61.29;96406.15;621557;228;64717;-62
2023/07/25 06:59:55;;;;;;;;;;;;;;;25.44;62.21;96409.33;621567;228;64704;-61
2023/07/25 07:02:22;;;;;;;;;;;;;;;25.47;63.10;96395.24;621543;228;64723;-61
2023/07/25 07:04:50;;;;;;;;;;;;;;;25.51;63.56;96399.98;621564;228;64702;-60
2023/07/25 07:07:17;;;;;;;;;;;;;;;25.52;63.44;96402.38;621524;228;65862;-59
2023/07/25 07:09:45;;;;;;;;;;;;;;;25.55;63.73;96390.98;621500;228;65047;-59
2023/07/25 07:12:13;;;;;;;;;;;;;;;25.56;64.28;96387.17;622095;227;63602;-59
2023/07/25 07:14:40;;;;;;;;;;;;;;;25.59;63.90;96389.27;622617;228;63425;-61
2023/07/25 07:17:07;;;;;;;;;;;;;;;25.59;63.81;96380.37;622660;228;66909;-59
2023/07/25 07:19:35;;;;;;;;;;;;;;;25.58;63.80;96376.89;622624;228;64787;-58
2023/07/25 07:22:02;;;;;;;;;;;;;;;25.61;63.86;96373.57;622565;228;64963;-59
2023/07/25 07:24:30;;;;;;;;;;;;;;;25.63;63.49;96370.58;622605;228;64922;-59
2023/07/25 07:26:57;;;;;;;;;;;;;;;25.66;64.16;96372.63;622678;228;64683;-59
2023/07/25 07:29:25;;;;;;;;;;;;;;;25.68;64.29;96367.73;622630;228;67288;-60
2023/07/25 07:31:53;;;;;;;;;;;;;;;25.71;65.07;96369.00;622691;228;66804;-60
2023/07/25 07:34:20;;;;;;;;;;;;;;;25.70;65.37;96365.52;622627;228;64722;-59
2023/07/25 07:36:48;;;;;;;;;;;;;;;25.70;65.25;96373.59;622608;228;67301;-59
2023/07/25 07:39:15;;;;;;;;;;;;;;;25.73;65.21;96375.64;622685;228;65293;-60
2023/07/25 07:41:42;;;;;;;;;;;;;;;25.75;65.60;96378.79;622602;228;64854;-60
2023/07/25 07:44:10;;;;;;;;;;;;;;;25.76;65.53;96369.62;622667;228;65138;-59
2023/07/25 07:46:38;;;;;;;;;;;;;;;25.78;65.52;96364.73;622663;228;64941;-59
2023/07/25 07:49:05;;;;;;;;;;;;;;;25.82;65.45;96364.87;622597;228;62616;-59
2023/07/25 07:51:33;;;;;;;;;;;;;;;25.84;65.67;96368.86;622675;228;65005;-58
2023/07/25 07:54:00;;;;;;;;;;;;;;;25.85;65.85;96350.80;622676;228;66985;-58
2023/07/25 07:56:28;;;;;;;;;;;;;;;25.83;65.96;96351.11;622588;228;64723;-65
2023/07/25 07:58:55;;;;;;;;;;;;;;;25.85;65.95;96353.50;622581;228;66898;-65
2023/07/25 08:01:23;;;;;;;;;;;;;;;25.85;66.05;96348.11;622602;228;64840;-65
2023/07/25 08:04:05;;;;;;;;;;;;;;;25.83;66.00;96351.11;622590;228;64797;-67
2023/07/25 08:06:32;;;;;;;;;;;;;;;25.82;65.96;96356.80;622631;228;67387;-68
2023/07/25 08:09:02;;;;;;;;;;;;;;;25.81;66.00;96358.70;613311;227;46624;-67
2023/07/25 08:11:30;;;;;;;;;;;;;;;25.81;66.18;96347.12;622536;227;62692;-73
2023/07/25 08:13:57;;;;;;;;;;;;;;;25.82;66.28;96346.81;622671;228;67355;-69
2023/07/25 08:16:25;;;;;;;;;;;;;;;25.84;67.02;96346.54;622600;228;67211;-69
2023/07/25 08:18:53;;;;;;;;;;;;;;;25.84;67.44;96336.56;622626;228;62624;-69
2023/07/25 08:21:20;;;;;;;;;;;;;;;25.90;67.26;96340.66;622681;228;67124;-71
2023/07/25 08:23:48;;;;;;;;;;;;;;;25.95;67.48;96341.63;622603;228;66977;-64
2023/07/25 08:26:15;;;;;;;;;;;;;;;25.95;67.75;96337.02;622601;228;64857;-64
2023/07/25 08:28:42;;;;;;;;;;;;;;;25.98;67.26;96338.28;622633;228;65072;-63
2023/07/25 08:31:10;;;;;;;;;;;;;;;25.97;67.09;96331.30;622614;228;64898;-63
2023/07/25 08:33:37;;;;;;;;;;;;;;;25.96;67.24;96333.20;622653;228;63464;-63
2023/07/25 08:36:05;;;;;;;;;;;;;;;25.95;67.36;96328.95;622665;228;67218;-63
2023/07/25 08:38:32;;;;;;;;;;;;;;;25.94;67.31;96321.96;622587;228;67012;-64
2023/07/25 08:41:04;;;;;;;;;;;;;;;25.93;67.36;96322.30;622660;228;64719;-63
2023/07/25 08:43:33;;;;;;;;;;;;;;;25.93;67.09;96322.30;618090;227;67259;-63
2023/07/25 08:46:02;;;;;;;;;;;;;;;25.93;66.86;96322.30;617324;230;64613;-63
2023/07/25 08:48:31;;;;;;;;;;;;;;;25.93;66.56;96322.30;617316;229;62619;-63
2023/07/25 08:51:00;;;;;;;;;;;;;;;25.94;66.42;96326.56;617440;230;64978;-64
2023/07/25 08:53:28;;;;;;;;;;;;;;;25.95;66.28;96325.47;617339;230;67413;-64
2023/07/25 08:55:57;;;;;;;;;;;;;;;25.95;66.22;96322.78;617444;230;64754;-64
2023/07/25 08:58:25;;;;;;;;;;;;;;;25.95;66.16;96320.09;617430;230;67143;-63
2023/07/25 09:00:54;;;;;;;;;;;;;;;25.96;65.91;96318.97;617374;230;67019;-64
2023/07/25 09:03:22;;;;;;;;;;;;;;;25.96;65.83;96313.58;617367;230;64829;-63
2023/07/25 09:05:51;;;;;;;;;;;;;;;25.97;65.80;96315.15;617449;230;47051;-64
2023/07/25 09:08:19;;;;;;;;;;;;;;;25.97;65.83;96309.77;617343;230;64912;-64
2023/07/25 09:10:46;;;;;;;;;;;;;;;25.98;65.80;96309.45;617424;230;62542;-64
2023/07/25 09:13:14;;;;;;;;;;;;;;;25.98;65.84;96304.07;617270;227;64683;-64
2023/07/25 09:15:41;;;;;;;;;;;;;;;26.00;65.84;96301.05;619190;229;64939;-63
2023/07/25 09:18:09;;;;;;;;;;;;;;;26.01;65.78;96305.34;619223;229;64561;-63
2023/07/25 09:20:37;;;;;;;;;;;;;;;26.00;65.63;96307.24;619267;229;67473;-63
2023/07/25 09:23:05;;;;;;;;;;;;;;;26.02;65.49;96309.59;619257;229;66984;-63
2023/07/25 09:25:33;;;;;;;;;;;;;;;26.03;65.20;96309.30;619264;229;64633;-63
2023/07/25 09:28:01;;;;;;;;;;;;;;;26.03;65.27;96311.20;619279;229;67177;-63
2023/07/25 09:30:28;;;;;;;;;;;;;;;26.02;65.25;96307.69;619264;229;66990;-64
2023/07/25 09:32:56;;;;;;;;;;;;;;;26.03;65.13;96305.81;619319;229;64737;-66
2023/07/25 09:35:23;;;;;;;;;;;;;;;26.03;64.70;96300.42;619337;229;67290;-67
2023/07/25 09:37:55;;;;;;;;;;;;;;;26.02;64.36;96306.91;619193;229;67011;-67
2023/07/25 09:40:22;;;;;;;;;;;;;;;26.02;64.03;96304.21;619301;229;62713;-66
2023/07/25 09:42:51;;;;;;;;;;;;;;;26.02;63.31;96296.14;619192;229;67204;-66
2023/07/25 09:45:19;;;;;;;;;;;;;;;26.00;63.20;96296.47;619225;229;66992;-65
2023/07/25 09:47:48;;;;;;;;;;;;;;;26.01;62.93;96291.88;619267;229;62706;-66
2023/07/25 09:50:17;;;;;;;;;;;;;;;26.02;62.84;96288.06;619180;229;64932;-66
2023/07/25 09:52:44;;;;;;;;;;;;;;;26.01;62.60;96276.50;619317;229;67053;-67
2023/07/25 09:55:12;;;;;;;;;;;;;;;26.00;62.65;96280.32;619288;229;62637;-67
2023/07/25 09:57:39;;;;;;;;;;;;;;;26.02;62.63;96277.29;619179;229;67284;-67
2023/07/25 10:00:07;;;;;;;;;;;;;;;26.02;62.55;96271.91;619296;229;66749;-66
2023/07/25 10:02:35;;;;;;;;;;;;;;;26.02;62.63;96271.91;619286;229;64760;-67
2023/07/25 10:05:03;;;;;;;;;;;;;;;26.00;62.27;96263.35;619152;229;67190;-66
2023/07/25 10:07:31;;;;;;;;;;;;;;;26.01;61.95;96259.56;619262;229;65228;-67
2023/07/25 10:09:59;;;;;;;;;;;;;;;26.00;61.87;96258.78;619311;229;62630;-66
2023/07/25 10:12:26;;;;;;;;;;;;;;;26.01;61.91;96254.97;624130;226;67232;-67
2023/07/25 10:14:56;;;;;;;;;;;;;;;26.02;61.96;96258.45;628112;226;64995;-67
2023/07/25 10:17:24;;;;;;;;;;;;;;;26.02;61.97;96255.75;628003;226;62841;-61
2023/07/25 10:19:53;;;;;;;;;;;;;;;26.03;61.55;96246.58;627924;226;67277;-63
2023/07/25 10:22:34;;;;;;;;;;;;;;;26.06;60.96;96245.94;628063;226;67031;-62
2023/07/25 10:25:02;;;;;;;;;;;;;;;26.08;59.82;96238.30;627919;226;64574;-61
2023/07/25 10:27:30;;;;;;;;;;;;;;;26.09;59.37;96237.99;628073;226;64767;-66
2023/07/25 10:30:03;;;;;;;;;;;;;;;26.09;59.29;96231.82;627993;226;64870;-66
2023/07/25 10:32:44;;;;;;;;;;;;;;;26.06;58.98;96230.56;627944;226;64829;-66
2023/07/25 10:35:11;;;;;;;;;;;;;;;26.05;59.46;96225.48;628000;226;66407;-66
2023/07/25 10:37:43;;;;;;;;;;;;;;;26.03;59.32;96222.34;628000;226;66953;-65
2023/07/25 10:40:14;;;;;;;;;;;;;;;26.02;59.49;96224.23;627763;226;64700;-65
2023/07/25 10:42:50;;;;;;;;;;;;;;;26.02;59.65;96218.84;628071;226;65166;-66
2023/07/25 10:45:34;;;;;;;;;;;;;;;26.01;59.71;96217.27;628101;226;64847;-66
2023/07/25 10:48:01;;;;;;;;;;;;;;;26.02;60.10;96207.29;627983;226;64745;-65
2023/07/25 10:50:45;;;;;;;;;;;;;;;26.02;59.95;96212.67;628072;226;66898;-66
2023/07/25 10:53:16;;;;;;;;;;;;;;;26.01;60.09;96216.49;628040;226;66786;-65
2023/07/25 10:56:02;;;;;;;;;;;;;;;26.01;60.09;96209.20;627983;226;64723;-66
2023/07/25 10:58:29;;;;;;;;;;;;;;;26.02;60.39;96207.29;627981;226;64679;-65
2023/07/25 11:00:58;;;;;;;;;;;;;;;26.02;60.18;96196.52;628032;226;64707;-66
2023/07/25 11:03:29;;;;;;;;;;;;;;;26.01;59.94;96197.64;627956;226;62772;-67
2023/07/25 11:06:10;;;;;;;;;;;;;;;26.02;60.07;96207.29;628034;226;66925;-65
2023/07/25 11:08:38;;;;;;;;;;;;;;;26.01;60.02;96194.95;628030;226;66742;-66
2023/07/25 11:11:10;;;;;;;;;;;;;;;25.99;59.21;96192.57;627942;226;62560;-65
2023/07/25 11:13:39;;;;;;;;;;;;;;;25.97;58.61;96189.41;624142;227;66911;-64
2023/07/25 11:16:07;;;;;;;;;;;;;;;25.95;58.21;96186.27;624429;227;66919;-64
2023/07/25 11:18:40;;;;;;;;;;;;;;;25.95;57.38;96185.48;624268;227;62659;-69
2023/07/25 11:21:05;;;;;;;;;;;;;;;25.97;57.67;96183.23;624218;227;64940;-72
2023/07/25 11:23:33;;;;;;;;;;;;;;;25.94;57.30;96178.50;624335;227;67455;-73
2023/07/25 11:26:02;;;;;;;;;;;;;;;25.94;56.73;96181.20;624354;227;64629;-62
2023/07/25 11:28:30;;;;;;;;;;;;;;;25.95;56.67;96178.19;624411;227;64966;-64
2023/07/25 11:30:59;;;;;;;;;;;;;;;25.96;56.19;96178.98;624320;227;65808;-66
2023/07/25 11:33:26;;;;;;;;;;;;;;;25.95;55.55;96174.72;624399;227;64788;-64
2023/07/25 11:35:54;;;;;;;;;;;;;;;25.95;55.66;96177.41;624398;227;67137;-64
2023/07/25 11:38:22;;;;;;;;;;;;;;;25.93;55.12;96175.03;624328;227;67019;-64
2023/07/25 11:40:52;;;;;;;;;;;;;;;25.92;54.93;96170.77;624395;227;64772;-64
2023/07/25 11:43:19;;;;;;;;;;;;;;;25.93;55.11;96171.55;624095;227;67082;-64
2023/07/25 11:45:47;;;;;;;;;;;;;;;25.92;55.00;96165.38;624345;227;66963;-64
2023/07/25 11:48:17;;;;;;;;;;;;;;;25.95;54.57;96172.02;624417;227;64766;-66
2023/07/25 11:50:48;;;;;;;;;;;;;;;25.94;54.81;96162.35;624317;226;65082;-65
2023/07/25 11:53:15;;;;;;;;;;;;;;;25.94;54.67;96154.27;618697;227;67070;-66
2023/07/25 11:55:43;;;;;;;;;;;;;;;25.94;54.63;96165.83;624367;227;64745;-64
2023/07/25 11:58:12;;;;;;;;;;;;;;;25.91;54.57;96164.56;624324;227;67189;-73
2023/07/25 12:00:42;;;;;;;;;;;;;;;25.96;54.76;96152.05;624353;227;64913;-74
2023/07/25 12:06:50;;;;;;;;;;;;;;;25.95;54.75;96145.10;624234;227;44217;-74
2023/07/25 12:09:18;;;;;;;;;;;;;;;25.95;54.83;96137.81;624412;227;65251;-74
2023/07/25 12:11:46;;;;;;;;;;;;;;;25.94;54.88;96135.43;624936;226;62615;-74
2023/07/25 12:17:45;;;;;;;;;;;;;;;25.93;54.98;96134.65;627815;226;38736;-74
2023/07/25 12:20:20;;;;;;;;;;;;;;;25.93;54.75;96139.25;627925;226;65087;-74
2023/07/25 12:22:47;;;;;;;;;;;;;;;25.92;54.73;96133.08;627996;226;67354;-73
2023/07/25 12:25:19;;;;;;;;;;;;;;;25.93;54.63;96150.02;627967;226;68164;-74
2023/07/25 12:27:48;;;;;;;;;;;;;;;25.91;54.55;96148.42;628003;226;65018;-67
2023/07/25 12:30:16;;;;;;;;;;;;;;;25.90;54.65;96141.47;627938;225;65978;-67
2023/07/25 12:32:43;;;;;;;;;;;;;;;25.91;54.97;96132.27;625797;225;64668;-67
2023/07/25 12:35:11;;;;;;;;;;;;;;;25.92;55.16;96143.84;625247;226;63497;-67
2023/07/25 12:37:39;;;;;;;;;;;;;;;25.91;55.54;96132.27;624417;227;64917;-67
2023/07/25 12:40:08;;;;;;;;;;;;;;;25.93;55.87;96131.17;624433;227;67277;-66
2023/07/25 12:42:35;;;;;;;;;;;;;;;25.93;56.06;96126.57;624438;227;64900;-65
2023/07/25 12:45:05;;;;;;;;;;;;;;;25.94;56.17;96127.36;624421;226;67176;-66
2023/07/25 12:47:33;;;;;;;;;;;;;;;25.94;56.36;96130.05;624381;227;64913;-70
2023/07/25 12:50:01;;;;;;;;;;;;;;;25.93;56.45;96123.88;624411;227;65680;-72
2023/07/25 12:52:28;;;;;;;;;;;;;;;25.99;55.61;96119.09;624499;227;67200;-66
2023/07/25 12:54:56;;;;;;;;;;;;;;;26.02;55.12;96123.83;624384;227;65033;-66
2023/07/25 12:57:23;;;;;;;;;;;;;;;26.02;54.64;96116.53;625813;226;62660;-66
2023/07/25 12:59:51;;;;;;;;;;;;;;;26.04;55.12;96113.53;626068;226;65399;-66